Time;durP1;ratioP1;P1;durP2;ratioP2;P2;SDS_P1;SDS_P2;PMS_P1;PMS_P2;Temp;Humidity;BMP_temperature;BMP_pressure;BME280_temperature;BME280_humidity;BME280_pressure;Samples;Min_cycle;Max_cycle;Signal;HPM_P1;HPM_P2
2022/07/18 00:00:54;;;;;;;1.90;0.50;;;;;;;18.18;38.11;101186.33;117057;1186;23547;-60
2022/07/18 00:03:21;;;;;;;2.70;0.80;;;;;;;18.16;38.08;101187.47;117115;1183;24133;-61
2022/07/18 00:05:48;;;;;;;1.50;0.80;;;;;;;18.14;38.48;101185.38;116988;1183;23002;-56
2022/07/18 00:08:15;;;;;;;0.70;0.50;;;;;;;18.14;38.35;101189.29;117299;1183;23452;-61
2022/07/18 00:10:42;;;;;;;2.40;0.80;;;;;;;18.07;38.58;101191.64;117057;1186;23579;-60
2022/07/18 00:13:10;;;;;;;3.10;0.50;;;;;;;17.99;38.82;101191.68;117097;1182;22933;-60
2022/07/18 00:15:37;;;;;;;2.90;0.60;;;;;;;17.94;38.90;101196.41;117101;1186;23542;-60
2022/07/18 00:18:04;;;;;;;3.20;0.70;;;;;;;17.85;38.85;101200.23;117274;1186;21673;-55
2022/07/18 00:20:32;;;;;;;3.00;0.60;;;;;;;17.79;38.90;101199.54;117092;1184;22868;-55
2022/07/18 00:22:59;;;;;;;4.30;1.40;;;;;;;17.71;38.92;101201.52;117087;1182;22095;-61
2022/07/18 00:25:26;;;;;;;3.20;0.70;;;;;;;17.64;39.11;101200.69;117064;1187;23001;-61
2022/07/18 00:27:53;;;;;;;1.50;0.60;;;;;;;17.59;39.07;101202.41;117296;1186;22320;-55
2022/07/18 00:30:20;;;;;;;1.20;0.70;;;;;;;17.56;39.25;101204.99;117126;1188;21859;-56
2022/07/18 00:32:47;;;;;;;3.60;0.60;;;;;;;17.50;39.25;101207.08;117152;1186;22768;-61
2022/07/18 00:35:15;;;;;;;3.30;1.10;;;;;;;17.43;39.25;101208.36;117148;1176;22153;-55
2022/07/18 00:37:42;;;;;;;3.30;0.90;;;;;;;17.33;39.46;101211.28;117307;1186;23520;-60
2022/07/18 00:40:09;;;;;;;2.20;0.60;;;;;;;17.24;39.54;101211.52;117181;1184;22242;-56
2022/07/18 00:42:36;;;;;;;2.10;0.80;;;;;;;17.16;39.66;101213.01;117098;1186;22916;-55
2022/07/18 00:45:05;;;;;;;2.90;0.90;;;;;;;17.09;39.87;101211.57;117304;1183;23563;-55
2022/07/18 00:47:32;;;;;;;2.30;0.70;;;;;;;17.05;39.91;101210.25;117262;1187;21869;-56
2022/07/18 00:50:02;;;;;;;2.10;0.50;;;;;;;17.03;39.94;101208.70;117309;1186;22910;-56
2022/07/18 00:52:29;;;;;;;1.00;0.60;;;;;;;17.03;39.96;101208.89;117106;1182;21892;-56
2022/07/18 00:54:56;;;;;;;4.00;0.70;;;;;;;17.02;40.05;101209.96;117348;1182;23778;-61
2022/07/18 00:57:23;;;;;;;1.30;0.60;;;;;;;17.04;40.33;101206.89;117129;1186;22939;-56
2022/07/18 01:02:36;;;;;;;2.40;0.70;;;;;;;17.07;40.61;101207.72;117138;1186;21920;-56
2022/07/18 01:05:04;;;;;;;5.00;0.80;;;;;;;17.06;40.64;101203.66;117079;1188;23626;-57
2022/07/18 01:07:31;;;;;;;3.70;0.60;;;;;;;17.08;40.85;101204.84;117082;1185;22896;-62
2022/07/18 01:09:58;;;;;;;3.90;0.80;;;;;;;17.12;40.95;101204.75;117272;1185;21989;-61
2022/07/18 01:12:26;;;;;;;4.30;1.20;;;;;;;17.16;41.15;101203.58;117175;1186;22958;-56
2022/07/18 01:14:53;;;;;;;5.90;0.60;;;;;;;17.18;41.14;101203.89;117324;1186;24696;-56
2022/07/18 01:17:20;;;;;;;0.70;0.40;;;;;;;17.22;41.46;101201.83;117023;1188;21892;-61
2022/07/18 01:19:47;;;;;;;2.90;0.80;;;;;;;17.24;41.94;101205.30;117283;1185;24179;-61
2022/07/18 01:22:15;;;;;;;2.80;0.80;;;;;;;17.25;42.20;101206.53;117471;1182;21947;-60
2022/07/18 01:24:42;;;;;;;1.80;0.60;;;;;;;17.28;41.83;101206.64;117317;1185;21914;-56
2022/07/18 01:27:13;;;;;;;4.40;0.90;;;;;;;17.33;41.90;101205.27;117106;1183;22858;-57
2022/07/18 01:29:41;;;;;;;1.40;0.50;;;;;;;17.34;41.86;101209.13;117253;1186;22753;-56
2022/07/18 01:32:08;;;;;;;0.90;0.40;;;;;;;17.35;42.06;101206.43;117395;1182;21852;-61
2022/07/18 01:34:36;;;;;;;1.90;0.50;;;;;;;17.35;41.95;101205.03;117070;1184;22870;-57
2022/07/18 01:37:03;;;;;;;1.50;0.50;;;;;;;17.34;41.97;101207.20;117095;1187;22710;-62
2022/07/18 01:39:30;;;;;;;2.90;0.70;;;;;;;17.34;42.06;101208.41;117364;1183;22978;-62
2022/07/18 01:41:59;;;;;;;2.00;0.60;;;;;;;17.34;42.06;101208.42;117427;1186;23471;-62
2022/07/18 01:44:26;;;;;;;0.80;0.40;;;;;;;17.33;42.06;101211.82;117152;1184;22030;-56
2022/07/18 01:46:54;;;;;;;1.90;0.60;;;;;;;17.32;42.05;101208.14;117313;1183;22983;-60
2022/07/18 01:49:21;;;;;;;0.80;0.50;;;;;;;17.29;42.09;101208.04;117359;1185;21941;-56
2022/07/18 01:51:49;;;;;;;2.50;0.70;;;;;;;17.24;42.13;101205.84;117196;1185;23560;-60
2022/07/18 01:54:22;;;;;;;3.20;0.50;;;;;;;17.18;42.05;101206.20;117214;1186;21857;-56
2022/07/18 01:56:49;;;;;;;1.20;0.50;;;;;;;17.12;42.10;101205.65;117316;1183;23451;-60
2022/07/18 01:59:17;;;;;;;4.30;0.60;;;;;;;17.07;42.24;101207.53;117378;1188;21887;-60
2022/07/18 02:01:44;;;;;;;1.70;0.60;;;;;;;17.07;42.59;101211.45;117306;1182;22602;-57
2022/07/18 02:04:11;;;;;;;1.50;0.60;;;;;;;17.14;42.07;101215.71;117256;1186;23432;-56
2022/07/18 02:06:38;;;;;;;2.80;0.60;;;;;;;17.12;42.04;101215.40;117371;1186;21858;-60
2022/07/18 02:09:06;;;;;;;1.40;0.60;;;;;;;17.12;42.10;101219.30;117373;1185;22638;-61
2022/07/18 02:11:33;;;;;;;2.90;0.80;;;;;;;17.13;42.09;101220.70;117044;1184;22324;-57
2022/07/18 02:14:00;;;;;;;1.90;0.60;;;;;;;17.13;42.23;101215.92;117360;1185;23626;-56
2022/07/18 02:16:28;;;;;;;3.70;0.90;;;;;;;17.10;42.36;101216.52;117334;1182;22996;-56
2022/07/18 02:18:56;;;;;;;3.70;0.70;;;;;;;17.07;42.52;101215.52;117402;1186;21867;-56
2022/07/18 02:21:24;;;;;;;1.80;0.60;;;;;;;17.02;42.71;101219.72;117119;1185;21856;-57
2022/07/18 02:23:51;;;;;;;1.30;0.60;;;;;;;17.00;42.52;101224.23;117257;1185;23544;-57
2022/07/18 02:26:18;;;;;;;5.00;0.80;;;;;;;16.99;42.88;101223.52;117363;1186;22628;-61
2022/07/18 02:28:45;;;;;;;3.40;0.80;;;;;;;16.99;42.71;101226.90;117382;1186;22421;-56
2022/07/18 02:31:13;;;;;;;2.20;0.80;;;;;;;17.01;42.56;101231.63;117260;1186;22622;-56
2022/07/18 02:33:41;;;;;;;3.50;0.80;;;;;;;17.00;42.49;101236.27;117216;1186;21854;-61
2022/07/18 02:36:08;;;;;;;2.00;0.60;;;;;;;16.97;42.59;101239.36;117351;1183;21841;-61
2022/07/18 02:38:35;;;;;;;3.70;0.80;;;;;;;16.88;42.46;101241.67;117329;1186;22882;-62
2022/07/18 02:41:02;;;;;;;3.50;1.10;;;;;;;16.79;42.48;101242.41;117314;1186;22622;-61
2022/07/18 02:43:29;;;;;;;1.20;0.60;;;;;;;16.69;42.73;101240.55;117384;1183;22655;-56
2022/07/18 02:45:56;;;;;;;4.40;0.90;;;;;;;16.59;42.81;101242.70;117278;1182;24160;-56
2022/07/18 02:48:24;;;;;;;4.80;0.80;;;;;;;16.52;42.87;101245.90;117412;1186;24267;-61
2022/07/18 02:50:51;;;;;;;3.90;0.90;;;;;;;16.46;42.89;101251.52;117287;1185;22973;-56
2022/07/18 02:53:19;;;;;;;2.30;0.70;;;;;;;16.41;42.88;101251.98;117411;1181;22737;-56
2022/07/18 02:55:46;;;;;;;0.90;0.80;;;;;;;16.39;43.01;101250.26;117362;1183;23560;-61
2022/07/18 02:58:13;;;;;;;2.10;0.70;;;;;;;16.40;42.95;101257.16;117327;1182;23628;-56
2022/07/18 03:00:40;;;;;;;4.10;0.90;;;;;;;16.43;43.20;101255.48;117265;1187;22274;-61
2022/07/18 03:03:08;;;;;;;1.80;0.70;;;;;;;16.48;43.11;101262.11;117259;1185;22643;-56
2022/07/18 03:05:35;;;;;;;4.00;0.70;;;;;;;16.50;43.08;101263.67;117327;1185;23267;-61
2022/07/18 03:08:03;;;;;;;4.90;1.20;;;;;;;16.48;43.14;101267.25;117050;1188;24281;-56
2022/07/18 03:10:30;;;;;;;8.20;0.80;;;;;;;16.44;43.24;101265.02;117268;1186;22837;-61
2022/07/18 03:12:57;;;;;;;5.70;0.90;;;;;;;16.40;43.32;101265.65;117177;1186;22623;-56
2022/07/18 03:15:24;;;;;;;3.30;0.80;;;;;;;16.36;43.51;101269.45;117145;1186;22913;-60
2022/07/18 03:17:51;;;;;;;5.60;0.90;;;;;;;16.32;43.85;101267.41;117284;1186;23618;-56
2022/07/18 03:20:18;;;;;;;4.20;1.00;;;;;;;16.31;43.71;101266.92;117275;1181;22905;-61
2022/07/18 03:22:46;;;;;;;5.60;0.70;;;;;;;16.34;44.12;101271.61;117306;1185;21864;-61
2022/07/18 03:25:13;;;;;;;5.00;0.80;;;;;;;16.39;44.19;101273.98;117220;1185;23313;-56
2022/07/18 03:27:42;;;;;;;5.00;1.10;;;;;;;16.46;44.10;101270.48;117020;1188;21879;-56
2022/07/18 03:30:10;;;;;;;3.60;1.10;;;;;;;16.56;44.27;101270.61;117306;1182;22614;-60
2022/07/18 03:32:37;;;;;;;5.20;1.20;;;;;;;16.65;44.28;101267.58;117123;1182;22084;-61
2022/07/18 03:35:05;;;;;;;5.70;1.20;;;;;;;16.75;44.41;101270.17;117290;1186;22644;-55
2022/07/18 03:37:32;;;;;;;8.20;1.30;;;;;;;16.86;44.58;101269.55;117322;1185;24293;-55
2022/07/18 03:39:58;;;;;;;7.10;0.80;;;;;;;17.00;44.85;101266.05;117168;1185;22862;-60
2022/07/18 03:42:26;;;;;;;4.10;1.10;;;;;;;17.15;45.31;101265.33;117300;1187;21874;-60
2022/07/18 03:44:53;;;;;;;1.30;0.70;;;;;;;17.33;45.72;101264.52;117066;1188;23014;-59
2022/07/18 03:47:20;;;;;;;1.70;0.60;;;;;;;17.50;45.60;101266.70;117184;1184;23618;-59
2022/07/18 03:49:47;;;;;;;2.80;0.90;;;;;;;17.66;45.84;101267.32;117243;1186;21863;-60
2022/07/18 03:52:14;;;;;;;4.50;0.90;;;;;;;17.82;45.85;101265.84;117271;1183;22937;-55
2022/07/18 03:54:41;;;;;;;5.70;0.80;;;;;;;17.96;45.74;101268.83;117346;1184;23535;-60
2022/07/18 03:57:09;;;;;;;2.90;0.90;;;;;;;18.10;45.67;101268.98;117252;1186;21955;-55
2022/07/18 03:59:36;;;;;;;5.00;1.40;;;;;;;18.21;45.74;101272.73;117360;1185;22886;-60
2022/07/18 04:02:03;;;;;;;2.40;1.20;;;;;;;18.32;45.52;101271.52;117281;1186;22723;-56
2022/07/18 04:04:30;;;;;;;2.00;0.80;;;;;;;18.44;45.79;101271.86;117044;1188;21902;-61
2022/07/18 04:06:59;;;;;;;2.50;0.80;;;;;;;18.56;45.21;101273.08;117288;1186;24157;-55
2022/07/18 04:09:26;;;;;;;3.90;1.00;;;;;;;18.70;45.57;101273.17;117268;1186;23520;-60
2022/07/18 04:11:54;;;;;;;3.40;1.10;;;;;;;18.83;45.83;101275.79;117049;1187;21912;-56
2022/07/18 04:14:22;;;;;;;3.00;0.80;;;;;;;18.93;45.50;101271.37;117359;1180;21867;-55
2022/07/18 04:16:49;;;;;;;5.10;1.00;;;;;;;19.06;45.18;101271.34;117361;1185;24155;-60
2022/07/18 04:19:17;;;;;;;1.30;0.60;;;;;;;19.19;45.41;101270.35;117117;1187;22036;-56
2022/07/18 04:21:44;;;;;;;2.50;0.60;;;;;;;19.34;44.74;101268.27;117206;1187;21866;-61
2022/07/18 04:24:11;;;;;;;4.80;0.70;;;;;;;19.46;45.17;101267.11;117560;1185;24261;-60
2022/07/18 04:26:38;;;;;;;2.20;0.70;;;;;;;19.57;44.97;101267.09;117232;1186;21856;-60
2022/07/18 04:29:05;;;;;;;3.50;1.00;;;;;;;19.70;44.67;101267.67;117411;1186;22791;-61
2022/07/18 04:31:32;;;;;;;1.10;0.50;;;;;;;19.83;44.32;101265.46;117326;1186;21964;-57
2022/07/18 04:33:59;;;;;;;3.60;0.70;;;;;;;19.94;44.57;101263.30;117253;1186;21859;-61
2022/07/18 04:36:26;;;;;;;2.60;0.80;;;;;;;20.06;44.51;101262.48;117260;1183;21851;-56
2022/07/18 04:38:53;;;;;;;1.70;0.70;;;;;;;20.18;44.56;101261.66;117116;1188;23463;-55
2022/07/18 04:41:22;;;;;;;0.60;0.60;;;;;;;20.29;44.33;101261.04;117260;1181;22910;-56
2022/07/18 04:43:50;;;;;;;3.00;0.90;;;;;;;20.37;44.57;101260.02;117023;1186;23459;-58
2022/07/18 04:46:17;;;;;;;2.30;0.50;;;;;;;20.46;43.96;101254.85;117292;1185;23648;-60
2022/07/18 04:48:45;;;;;;;1.70;0.70;;;;;;;20.55;43.83;101253.98;117347;1186;23344;-56
2022/07/18 04:51:12;;;;;;;2.20;0.80;;;;;;;20.66;43.75;101255.16;117282;1182;22900;-60
2022/07/18 04:53:39;;;;;;;1.30;0.50;;;;;;;20.79;43.75;101257.50;117245;1185;22504;-57
2022/07/18 04:56:06;;;;;;;4.80;0.90;;;;;;;20.89;43.80;101257.27;117192;1185;21847;-61
2022/07/18 04:58:33;;;;;;;1.80;0.70;;;;;;;21.01;43.62;101258.55;117279;1184;23448;-60
2022/07/18 05:01:00;;;;;;;1.40;0.60;;;;;;;21.12;43.37;101258.83;117032;1188;23437;-60
2022/07/18 05:03:27;;;;;;;2.50;0.50;;;;;;;21.20;43.33;101259.70;117308;1184;22923;-56
2022/07/18 05:05:54;;;;;;;3.70;0.70;;;;;;;21.29;42.98;101263.45;117372;1186;21863;-56
2022/07/18 05:08:21;;;;;;;2.20;0.60;;;;;;;21.39;42.96;101263.19;117263;1183;23450;-61
2022/07/18 05:10:48;;;;;;;5.00;0.60;;;;;;;21.48;42.83;101262.26;117333;1188;21933;-56
2022/07/18 05:13:16;;;;;;;2.30;0.70;;;;;;;21.61;42.74;101257.96;117371;1185;23442;-60
2022/07/18 05:15:43;;;;;;;1.70;0.70;;;;;;;21.74;42.56;101262.05;117342;1183;21951;-56
2022/07/18 05:18:10;;;;;;;2.60;1.20;;;;;;;21.86;42.54;101258.27;117337;1185;22311;-56
2022/07/18 05:20:37;;;;;;;1.70;0.80;;;;;;;22.00;42.40;101254.80;117296;1182;23895;-56
2022/07/18 05:23:10;;;;;;;1.80;0.80;;;;;;;22.14;42.28;101257.91;117096;1188;23604;-60
2022/07/18 05:25:37;;;;;;;3.40;0.60;;;;;;;22.23;42.18;101258.20;117119;1186;23626;-60
2022/07/18 05:28:04;;;;;;;3.30;1.30;;;;;;;22.36;42.04;101259.70;117094;1182;23456;-60
2022/07/18 05:30:31;;;;;;;1.90;0.60;;;;;;;22.49;41.75;101257.86;117069;1186;22873;-56
2022/07/18 05:32:58;;;;;;;2.50;0.60;;;;;;;22.63;41.42;101256.48;117242;1186;22704;-59
2022/07/18 05:35:25;;;;;;;0.60;0.60;;;;;;;22.70;41.17;101258.27;117028;1186;24137;-56
2022/07/18 05:37:52;;;;;;;3.40;0.50;;;;;;;22.78;41.13;101257.38;117289;1186;21859;-56
2022/07/18 05:40:19;;;;;;;4.40;0.60;;;;;;;22.91;41.19;101255.64;117288;1186;21867;-60
2022/07/18 05:42:46;;;;;;;0.90;0.50;;;;;;;23.07;41.09;101253.76;117385;1182;23433;-60
2022/07/18 05:45:24;;;;;;;3.40;0.70;;;;;;;23.21;40.92;101252.70;117175;1188;21884;-57
2022/07/18 05:47:52;;;;;;;1.90;0.60;;;;;;;23.30;40.66;101251.02;117093;1186;23434;-56
2022/07/18 05:50:20;;;;;;;4.80;0.60;;;;;;;23.37;40.78;101246.73;117329;1186;22917;-58
2022/07/18 05:52:47;;;;;;;1.40;0.80;;;;;;;23.50;40.55;101247.64;117334;1182;21879;-57
2022/07/18 05:55:14;;;;;;;2.00;0.60;;;;;;;23.64;40.20;101247.78;117341;1185;23419;-56
2022/07/18 05:57:40;;;;;;;12.00;2.30;;;;;;;23.80;40.06;101248.40;117193;1188;21902;-56
2022/07/18 06:00:09;;;;;;;2.50;0.60;;;;;;;23.94;39.74;101242.07;117268;1185;22910;-61
2022/07/18 06:02:36;;;;;;;0.60;0.30;;;;;;;24.08;39.74;101246.89;117285;1185;22957;-57
2022/07/18 06:05:07;;;;;;;1.30;0.30;;;;;;;24.23;39.30;101246.95;117128;1188;23614;-57
2022/07/18 06:07:55;;;;;;;1.40;0.50;;;;;;;24.36;39.21;101243.56;117317;1183;22916;-57
2022/07/18 06:10:23;;;;;;;;;;;;;;;24.48;39.05;101239.80;117103;1188;23469;-61
2022/07/18 06:12:50;;;;;;;2.90;0.40;;;;;;;24.61;38.89;101240.00;117270;1186;23527;-57
2022/07/18 06:15:17;;;;;;;2.00;0.60;;;;;;;24.74;38.91;101237.99;117292;1185;21868;-57
2022/07/18 06:17:44;;;;;;;0.40;0.30;;;;;;;24.92;38.65;101240.75;117313;1182;22622;-57
2022/07/18 06:20:11;;;;;;;1.40;0.60;;;;;;;25.09;38.28;101240.64;117195;1185;22914;-60
2022/07/18 06:22:38;;;;;;;1.70;0.50;;;;;;;25.16;37.72;101245.44;117300;1185;23648;-58
2022/07/18 06:25:06;;;;;;;1.90;0.40;;;;;;;25.12;37.45;101241.37;117168;1185;23543;-61
2022/07/18 06:27:35;;;;;;;2.00;0.60;;;;;;;25.11;37.40;101237.81;117217;1186;22805;-60
2022/07/18 06:30:04;;;;;;;4.00;0.50;;;;;;;25.16;37.30;101240.23;117268;1185;22902;-56
2022/07/18 06:32:31;;;;;;;3.20;0.60;;;;;;;25.24;37.25;101239.02;117170;1186;23034;-59
2022/07/18 06:35:17;;;;;;;0.60;0.40;;;;;;;25.33;36.86;101234.70;117277;1186;21856;-60
2022/07/18 06:37:44;;;;;;;1.10;0.40;;;;;;;25.47;36.82;101235.30;117224;1186;21848;-60
2022/07/18 06:40:11;;;;;;;1.40;0.50;;;;;;;25.64;36.78;101233.70;117279;1182;21857;-60
2022/07/18 06:42:38;;;;;;;1.10;0.60;;;;;;;25.81;36.81;101230.72;117270;1186;23440;-61
2022/07/18 06:45:07;;;;;;;1.90;0.50;;;;;;;25.89;36.43;101228.04;117183;1186;21867;-56
2022/07/18 06:47:39;;;;;;;2.90;0.60;;;;;;;25.97;36.29;101225.02;117221;1186;22901;-60
2022/07/18 06:50:07;;;;;;;1.20;0.60;;;;;;;26.03;35.94;101225.54;117031;1187;23460;-59
2022/07/18 06:52:34;;;;;;;4.50;1.10;;;;;;;26.09;35.69;101226.20;117165;1185;22945;-57
2022/07/18 06:55:00;;;;;;;6.80;0.90;;;;;;;26.18;35.78;101221.94;117226;1186;22833;-57
2022/07/18 06:57:27;;;;;;;1.30;0.60;;;;;;;26.25;35.50;101220.20;117224;1186;21849;-61
2022/07/18 06:59:55;;;;;;;0.90;0.50;;;;;;;26.35;35.88;101213.57;117292;1183;24146;-60
2022/07/18 07:02:25;;;;;;;3.30;0.80;;;;;;;26.51;35.34;101214.48;117190;1186;22985;-57
2022/07/18 07:04:52;;;;;;;1.30;0.50;;;;;;;26.64;34.90;101211.67;117191;1183;22980;-61
2022/07/18 07:07:19;;;;;;;1.90;0.70;;;;;;;26.71;34.73;101213.16;117290;1185;22112;-61
2022/07/18 07:09:46;;;;;;;0.80;0.60;;;;;;;26.85;34.84;101211.54;117031;1185;23082;-61
2022/07/18 07:12:13;;;;;;;1.80;0.50;;;;;;;26.98;34.70;101208.14;117105;1186;22956;-61
2022/07/18 07:14:40;;;;;;;2.40;0.70;;;;;;;27.00;34.13;101208.02;117244;1185;22923;-61
2022/07/18 07:17:07;;;;;;;2.00;0.50;;;;;;;26.95;34.58;101204.57;117224;1182;23470;-61
2022/07/18 07:19:34;;;;;;;1.60;0.50;;;;;;;26.97;34.58;101206.61;117079;1186;23448;-58
2022/07/18 07:22:01;;;;;;;2.60;1.00;;;;;;;27.00;34.12;101203.14;117273;1183;23595;-61
2022/07/18 07:24:28;;;;;;;6.10;1.30;;;;;;;27.03;33.70;101203.88;117274;1186;23542;-58
2022/07/18 07:26:55;;;;;;;0.60;0.50;;;;;;;27.06;34.05;101206.23;117479;1182;23465;-62
2022/07/18 07:29:22;;;;;;;1.80;0.60;;;;;;;27.09;33.69;101205.61;117172;1185;21858;-58
2022/07/18 07:31:49;;;;;;;2.10;0.50;;;;;;;27.19;33.90;101203.13;117211;1186;21884;-58
2022/07/18 07:34:17;;;;;;;18.30;1.90;;;;;;;27.38;34.11;101198.94;117176;1181;21858;-58
2022/07/18 07:36:44;;;;;;;3.60;0.70;;;;;;;27.71;33.97;101197.16;117365;1183;22819;-62
2022/07/18 07:39:11;;;;;;;4.20;0.70;;;;;;;28.02;33.89;101192.03;118017;1185;22829;-61
2022/07/18 07:41:38;;;;;;;3.10;0.70;;;;;;;28.36;33.56;101183.98;117351;1186;22949;-57
2022/07/18 07:44:05;;;;;;;5.50;0.60;;;;;;;28.53;33.32;101189.00;117300;1186;23431;-61
2022/07/18 07:46:32;;;;;;;1.80;0.70;;;;;;;28.78;33.20;101184.48;117324;1185;22941;-57
2022/07/18 07:48:59;;;;;;;2.60;0.40;;;;;;;28.93;32.64;101186.45;117270;1184;23084;-60
2022/07/18 07:51:27;;;;;;;3.10;0.70;;;;;;;29.00;31.58;101186.38;116986;1186;22625;-61
2022/07/18 07:54:01;;;;;;;1.70;0.60;;;;;;;29.07;32.17;101186.97;117146;1188;22983;-61
2022/07/18 07:56:28;;;;;;;1.80;0.60;;;;;;;29.01;31.75;101186.70;117176;1182;21863;-58
2022/07/18 07:58:55;;;;;;;1.30;0.60;;;;;;;29.00;31.80;101189.11;117298;1186;23449;-60
2022/07/18 08:01:22;;;;;;;2.40;0.80;;;;;;;29.03;31.75;101186.48;117088;1186;23538;-58
2022/07/18 08:03:50;;;;;;;2.40;1.00;;;;;;;29.12;31.56;101185.30;117301;1186;22910;-58
2022/07/18 08:06:17;;;;;;;1.90;0.80;;;;;;;29.23;31.59;101181.89;117287;1183;21905;-61
2022/07/18 08:08:44;;;;;;;12.30;4.90;;;;;;;29.30;31.21;101177.56;117281;1186;21915;-58
2022/07/18 08:11:12;;;;;;;6.20;3.70;;;;;;;29.48;30.60;101179.42;117185;1182;21866;-61
2022/07/18 08:13:39;;;;;;;9.90;6.00;;;;;;;29.67;30.57;101176.44;117229;1183;21855;-60
2022/07/18 08:16:06;;;;;;;12.30;3.80;;;;;;;29.84;30.79;101174.34;117251;1186;21839;-57
2022/07/18 08:18:33;;;;;;;3.30;1.40;;;;;;;30.04;30.49;101175.84;117351;1185;21940;-60
2022/07/18 08:21:00;;;;;;;5.40;1.30;;;;;;;30.10;29.74;101174.81;117261;1185;23539;-58
2022/07/18 08:23:27;;;;;;;2.30;1.40;;;;;;;30.12;29.81;101174.47;117269;1186;21857;-59
2022/07/18 08:25:54;;;;;;;4.70;1.90;;;;;;;30.21;29.69;101167.98;117360;1183;23449;-59
2022/07/18 08:28:21;;;;;;;2.40;1.30;;;;;;;30.30;29.41;101168.64;117299;1186;21855;-60
2022/07/18 08:30:48;;;;;;;4.90;1.40;;;;;;;30.35;29.59;101166.40;117310;1186;21860;-59
2022/07/18 08:33:15;;;;;;;2.60;0.90;;;;;;;30.50;29.31;101176.78;117140;1186;23435;-60
2022/07/18 08:35:42;;;;;;;5.30;0.80;;;;;;;30.50;28.27;101169.87;117058;1187;23582;-57
2022/07/18 08:38:09;;;;;;;2.30;1.10;;;;;;;30.47;28.18;101170.09;117265;1185;21899;-58
2022/07/18 08:40:40;;;;;;;6.10;1.70;;;;;;;30.41;27.95;101168.84;117355;1182;23531;-63
2022/07/18 08:43:07;;;;;;;7.30;1.20;;;;;;;30.32;28.44;101165.22;117336;1186;21853;-60
2022/07/18 08:45:48;;;;;;;4.30;0.90;;;;;;;30.57;28.59;101164.61;117172;1186;21867;-61
2022/07/18 08:48:16;;;;;;;3.10;0.80;;;;;;;30.80;28.28;101167.73;117348;1182;22321;-59
2022/07/18 08:50:45;;;;;;;1.50;0.70;;;;;;;30.85;28.14;101168.24;117741;1186;22935;-62
2022/07/18 08:53:12;;;;;;;6.20;1.20;;;;;;;30.85;27.43;101164.02;117227;1184;23465;-62
2022/07/18 08:55:39;;;;;;;5.40;1.00;;;;;;;30.92;27.75;101163.86;117050;1189;24155;-61
2022/07/18 08:58:06;;;;;;;1.90;0.70;;;;;;;31.07;27.90;101162.55;117401;1184;23456;-62
2022/07/18 09:00:53;;;;;;;5.50;1.00;;;;;;;31.34;27.56;101163.86;117323;1186;21967;-59
2022/07/18 09:03:20;;;;;;;2.40;0.70;;;;;;;31.41;26.87;101165.77;117378;1185;23291;-61
2022/07/18 09:05:48;;;;;;;4.10;0.90;;;;;;;31.38;26.61;101164.06;117448;1185;22090;-62
2022/07/18 09:08:17;;;;;;;3.30;0.90;;;;;;;31.44;27.28;101159.86;117144;1185;21864;-59
2022/07/18 09:10:55;;;;;;;5.70;1.10;;;;;;;31.68;27.15;101158.48;117435;1183;21861;-59
2022/07/18 09:13:23;;;;;;;1.70;0.80;;;;;;;31.92;26.87;101158.50;117682;1184;22906;-60
2022/07/18 09:16:07;;;;;;;2.60;0.80;;;;;;;32.13;26.22;101156.80;117943;1186;23007;-61
2022/07/18 09:18:36;;;;;;;1.40;0.70;;;;;;;32.21;25.16;101155.90;117399;1183;21857;-62
2022/07/18 09:21:17;;;;;;;1.90;0.60;;;;;;;32.22;26.29;101152.19;117599;1182;24138;-61
2022/07/18 09:23:48;;;;;;;1.40;0.70;;;;;;;32.38;25.62;101156.58;117191;1186;21868;-58
2022/07/18 09:26:39;;;;;;;2.00;1.10;;;;;;;32.48;25.96;101154.32;117284;1183;22616;-58
2022/07/18 09:29:07;;;;;;;1.50;0.70;;;;;;;32.52;25.49;101149.21;117346;1186;21857;-62
2022/07/18 09:31:54;;;;;;;2.40;0.90;;;;;;;32.51;25.70;101147.49;117417;1183;23534;-63
2022/07/18 09:34:38;;;;;;;4.40;0.80;;;;;;;32.68;25.84;101145.05;117407;1184;21854;-60
2022/07/18 09:37:10;;;;;;;2.10;0.70;;;;;;;32.80;25.27;101142.26;117172;1188;22914;-61
2022/07/18 09:39:37;;;;;;;0.90;0.60;;;;;;;32.79;24.90;101138.69;117282;1186;22710;-62
2022/07/18 09:42:17;;;;;;;5.10;0.90;;;;;;;32.75;24.30;101135.62;117340;1183;22701;-60
2022/07/18 09:45:10;;;;;;;5.50;2.50;;;;;;;32.83;24.30;101141.44;117290;1180;22908;-61
2022/07/18 09:47:55;;;;;;;3.60;1.80;;;;;;;32.92;24.50;101136.98;117373;1185;23471;-61
2022/07/18 09:50:36;;;;;;;4.10;0.90;;;;;;;33.08;24.22;101137.71;117448;1183;21854;-59
2022/07/18 09:53:12;;;;;;;1.90;0.70;;;;;;;33.01;24.19;101139.96;117363;1185;24152;-60
2022/07/18 09:56:02;;;;;;;2.10;0.90;;;;;;;32.90;23.74;101139.70;117320;1184;22995;-58
2022/07/18 09:58:31;;;;;;;1.50;0.80;;;;;;;32.78;23.38;101133.73;117425;1186;21842;-57
2022/07/18 10:01:00;;;;;;;5.00;1.30;;;;;;;32.78;23.82;101129.04;117435;1186;23531;-59
2022/07/18 10:03:27;;;;;;;2.90;1.10;;;;;;;32.82;23.79;101128.97;117392;1186;21855;-61
2022/07/18 10:05:56;;;;;;;1.80;0.90;;;;;;;32.96;24.08;101131.34;117448;1184;21857;-60
2022/07/18 10:08:25;;;;;;;2.80;0.90;;;;;;;33.09;23.85;101128.61;117443;1182;23552;-59
2022/07/18 10:10:53;;;;;;;1.50;0.90;;;;;;;33.10;23.48;101131.13;117109;1186;21846;-59
2022/07/18 10:13:21;;;;;;;1.50;0.90;;;;;;;33.18;23.97;101130.72;117322;1185;22907;-61
2022/07/18 10:15:50;;;;;;;1.60;0.60;;;;;;;33.34;23.87;101127.48;117123;1186;23001;-62
2022/07/18 10:18:22;;;;;;;0.70;0.60;;;;;;;33.57;23.96;101122.42;117246;1185;22920;-62
2022/07/18 10:20:54;;;;;;;2.80;0.80;;;;;;;33.79;24.00;101120.04;117436;1181;22934;-62
2022/07/18 10:23:25;;;;;;;1.90;1.00;;;;;;;34.07;23.52;101122.00;117341;1186;21857;-60
2022/07/18 10:26:05;;;;;;;3.50;1.00;;;;;;;34.37;23.37;101130.64;117439;1186;21853;-62
2022/07/18 10:28:32;;;;;;;3.10;0.80;;;;;;;34.58;23.37;101127.42;117357;1185;22905;-60
2022/07/18 10:31:15;;;;;;;1.80;0.80;;;;;;;34.80;23.21;101113.67;117225;1186;22925;-58
2022/07/18 10:33:45;;;;;;;2.90;0.70;;;;;;;35.01;23.15;101109.31;117318;1183;21855;-62
2022/07/18 10:36:14;;;;;;;1.20;0.80;;;;;;;35.18;22.91;101111.02;117356;1182;21868;-58
2022/07/18 10:39:07;;;;;;;1.20;0.90;;;;;;;35.30;22.62;101106.64;117548;1181;23446;-57
2022/07/18 10:41:43;;;;;;;3.00;1.10;;;;;;;35.30;21.79;101104.41;117224;1186;21883;-63
2022/07/18 10:44:25;;;;;;;1.90;1.00;;;;;;;35.09;21.92;101107.72;117079;1187;23536;-62
2022/07/18 10:47:12;;;;;;;1.00;0.60;;;;;;;34.99;22.38;101101.38;117085;1188;23464;-60
2022/07/18 10:49:49;;;;;;;2.60;0.70;;;;;;;35.10;21.96;101098.56;117260;1185;21863;-60
2022/07/18 10:52:32;;;;;;;2.30;0.80;;;;;;;35.10;22.06;101096.20;117177;1180;22908;-60
2022/07/18 10:55:02;;;;;;;1.30;0.80;;;;;;;35.08;22.19;101097.50;117206;1185;21911;-60
2022/07/18 10:57:30;;;;;;;2.60;0.70;;;;;;;35.16;22.11;101093.88;117277;1184;24131;-60
2022/07/18 11:00:03;;;;;;;2.70;1.00;;;;;;;35.28;22.06;101094.79;117484;1183;22840;-59
2022/07/18 11:02:45;;;;;;;3.50;0.80;;;;;;;35.38;22.05;101082.81;117321;1186;22899;-61
2022/07/18 11:05:24;;;;;;;1.20;0.70;;;;;;;35.42;21.43;101083.08;117317;1186;22677;-58
2022/07/18 11:07:58;;;;;;;2.80;1.00;;;;;;;35.06;20.93;101088.17;117306;1181;21857;-61
2022/07/18 11:10:47;;;;;;;5.50;1.00;;;;;;;34.59;20.76;101090.52;117218;1185;23498;-58
2022/07/18 11:13:32;;;;;;;1.70;0.90;;;;;;;34.50;21.70;101090.68;117186;1183;21855;-59
2022/07/18 11:16:12;;;;;;;2.90;0.90;;;;;;;34.73;21.77;101083.59;117283;1185;22902;-60
2022/07/18 11:18:47;;;;;;;2.50;0.80;;;;;;;34.99;21.71;101085.90;117377;1186;21961;-59
2022/07/18 11:21:24;;;;;;;0.90;0.50;;;;;;;35.07;21.39;101080.89;117394;1183;24196;-59
2022/07/18 11:24:08;;;;;;;2.80;1.00;;;;;;;34.96;21.47;101080.83;117428;1184;21885;-61
2022/07/18 11:26:37;;;;;;;1.60;0.80;;;;;;;34.94;21.57;101082.31;117283;1186;21889;-62
2022/07/18 11:29:08;;;;;;;3.00;0.90;;;;;;;34.91;21.60;101078.44;117220;1186;21961;-59